Comment ça marche ?

Vous n'êtes pas identifié.

Annonce

Besoin d'aide ?, Inscrit toi dans notre forum, Et poste votre problème ! ----------------------- Cordialement Stony,

Programmation

Discussion Réponses Vues Dernier message
0 8 Hier 14:57:34 par gamal
0 1 Hier 14:56:47 par gamal
0 1 Hier 13:59:32 par nzbvxcsdwe
breitling skyracer par benedict01  [ 1 2 ]
385 32929 05-04-2020 22:35:47 par نماشویی
0 4 04-04-2020 13:13:50 par egaillait
0 2 04-04-2020 06:44:34 par kaobeageamcp
0 0 04-04-2020 06:43:44 par kaobeageamcp
0 3 03-04-2020 07:07:44 par daesxoexmoltea
2 64 02-04-2020 15:28:57 par alicedixsonau
0 5 01-04-2020 10:11:24 par ikowidhadpe
0 4 31-03-2020 06:42:18 par spesiateicker
Adidas Falcon Oline par anderase@yandex.com
0 1 30-03-2020 10:04:33 par anderase@yandex.com
Adidas Ultra Boost Udsalg par anderase@yandex.com
0 1 30-03-2020 09:50:48 par anderase@yandex.com
Nike Air Max 97 Schuhe par anderase@yandex.com
0 1 30-03-2020 09:39:37 par anderase@yandex.com
Adidas EQT Baratas par anderase@yandex.com
0 1 30-03-2020 09:34:06 par anderase@yandex.com
Nike Air Max 95 Schuhe par anderase@yandex.com
0 1 30-03-2020 09:29:46 par anderase@yandex.com
Chaussure de Nike Zoom 2K par anderase@yandex.com
0 4 30-03-2020 09:19:51 par anderase@yandex.com
Adidas Deerupt Buy Online par anderase@yandex.com
0 2 30-03-2020 09:11:16 par anderase@yandex.com
Nike Air Max 98 en Ligne par anderase@yandex.com
0 2 30-03-2020 09:02:51 par anderase@yandex.com
1 8 30-03-2020 07:04:40 par tony12
https://corner-ksa.blogspot.com par https://corner-ksa.blogsp
10 15 27-03-2020 20:47:43 par grandh
bareeq-jeddah.blogspot.com par bareeq-jeddah
7 10 27-03-2020 20:38:21 par grandh
0 5 27-03-2020 12:08:57 par farciriezece
0 5 27-03-2020 06:04:00 par bohrgebietmo
0 1 27-03-2020 06:03:53 par bohrgebietmo
0 5 26-03-2020 11:22:55 par munikzujik
0 6 23-03-2020 22:50:25 par mostafashaban
3 263 20-03-2020 14:04:27 par jackpocke
0 4 16-03-2020 07:48:57 par k_z4htzq
0 4 16-03-2020 07:36:03 par k_z4htzq
0 4 16-03-2020 07:24:15 par k_z4htzq
0 15 16-03-2020 06:18:04 par romagnesdoue
0 12 13-03-2020 05:57:39 par xhuneachuxea
0 5 11-03-2020 07:45:42 par sofiya
0 9 10-03-2020 06:44:44 par dxodeaczmsea
0 5 10-03-2020 06:44:17 par dxodeaczmsea
0 7 08-03-2020 14:41:59 par cxoueanvbeta
Acquista Air Jordan par inkeron@yandex.com
0 8 07-03-2020 05:04:11 par inkeron@yandex.com
New Balance 997 Prezzi Bassi par inkeron@yandex.com
0 6 07-03-2020 04:59:15 par inkeron@yandex.com
Nike Air Max 180 te Koop par inkeron@yandex.com
0 6 07-03-2020 04:53:41 par inkeron@yandex.com
Achat Air Jordan 1 par inkeron@yandex.com
0 5 07-03-2020 04:38:42 par inkeron@yandex.com
Nike Air Max 1 Svendita par inkeron@yandex.com
0 5 07-03-2020 04:21:29 par inkeron@yandex.com
Ofertas Air Jordan 5 par inkeron@yandex.com
0 5 07-03-2020 04:14:09 par inkeron@yandex.com
Buy Nike Air More Uptempo par inkeron@yandex.com
0 5 07-03-2020 04:09:01 par inkeron@yandex.com
Nike Air Max 97 Reduziert par inkeron@yandex.com
0 5 07-03-2020 04:02:13 par inkeron@yandex.com
Adidas Tubular Sale par inkeron@yandex.com
0 5 07-03-2020 03:55:06 par inkeron@yandex.com
Buy Nike Flyknit Air Max par inkeron@yandex.com
0 5 07-03-2020 03:47:40 par inkeron@yandex.com
Adidas EQT on Sale par inkeron@yandex.com
0 6 07-03-2020 03:40:03 par inkeron@yandex.com
0 7 06-03-2020 10:39:37 par kiwirodabijea
0 11 04-03-2020 13:16:45 par Billie1
0 12 29-02-2020 12:18:42 par jprenx29
0 6 29-02-2020 12:07:32 par jprenx29
0 7 29-02-2020 11:58:10 par jprenx29
Nike Air Max Tailwind Svendita par larguea@nerdmail.co
0 8 28-02-2020 04:46:34 par larguea@nerdmail.co
Nike Air Max Plus Shoes par larguea@nerdmail.co
0 6 28-02-2020 04:40:59 par larguea@nerdmail.co
Nike Air Max Dia Schoenen par larguea@nerdmail.co
0 7 28-02-2020 04:34:20 par larguea@nerdmail.co
Adidas NMD Goedkoop par larguea@nerdmail.co
0 5 28-02-2020 04:29:59 par larguea@nerdmail.co
Acquista Nike SB Stefan Janoski par larguea@nerdmail.co
0 5 28-02-2020 04:18:17 par larguea@nerdmail.co
Nike Air Max 95 Sneaker par larguea@nerdmail.co
0 6 28-02-2020 04:11:06 par larguea@nerdmail.co
Adidas Falcon Shoes par larguea@nerdmail.co
0 7 28-02-2020 04:04:55 par larguea@nerdmail.co
Nike M2K Günstige par larguea@nerdmail.co
0 5 28-02-2020 03:57:49 par larguea@nerdmail.co
Nike KD Online par larguea@nerdmail.co
0 5 28-02-2020 03:35:30 par larguea@nerdmail.co
0 10 27-02-2020 06:22:57 par nakinecauiea
0 10 24-02-2020 15:11:24 par phbnrevxotue
0 6 22-02-2020 15:29:45 par myueaxaqmgvc
0 12 22-02-2020 08:06:33 par pokojihpae
The Super Bowl in 2020 par tomasett
2 46 19-02-2020 08:33:52 par healthymom
0 15 18-02-2020 07:32:51 par 9u8mldbt
0 11 18-02-2020 07:27:54 par 9u8mldbt
0 9 18-02-2020 07:19:15 par 9u8mldbt
adidas shoes pink par diontillman67
10 572 14-02-2020 05:53:18 par burkkevin
0 11 11-02-2020 09:31:05 par xocirmueahd
0 16 06-02-2020 05:20:15 par tomasett
0 19 04-02-2020 19:47:41 par credu
0 20 04-02-2020 19:09:34 par Rachael121
2 65 04-02-2020 10:38:59 par instacaptain
0 19 02-02-2020 15:20:24 par tomasett
0 38 02-02-2020 07:14:19 par tomasett
1 72 29-01-2020 06:22:06 par alktub
0 29 24-01-2020 07:57:21 par tomasett
1 37 21-01-2020 05:06:49 par Taylor24
0 22 19-01-2020 21:03:14 par tomasett
0 27 18-01-2020 20:32:26 par tomasett
0 19 18-01-2020 18:13:07 par tomasett
1 28 17-01-2020 19:50:54 par johnberry
0 22 10-01-2020 06:17:12 par 3et6d27j
0 24 04-01-2020 22:02:36 par Jennifer1
0 19 04-01-2020 22:02:33 par Jennifer1
0 22 03-01-2020 07:13:59 par 6dcib69p
0 17 03-01-2020 07:06:53 par 6dcib69p
0 23 03-01-2020 06:53:26 par 6dcib69p
Purchase Nike M2K Tekno par woogn@nerdmail.co
1 53 02-01-2020 20:40:27 par harryjack
0 21 27-12-2019 01:55:13 par شركة الاطياف
fila shoes for running par Andy Robert
2 75 23-12-2019 12:41:50 par vjazzywell
0 34 07-12-2019 12:33:46 par dolorebolton
1 46 07-12-2019 00:46:26 par roma
0 50 06-12-2019 11:33:36 par starktony
0 44 05-12-2019 09:28:50 par aquabglawy
0 47 30-11-2019 05:57:31 par menoapuchea
شركة رواد الحرمين par الاطياف
0 33 26-11-2019 00:50:14 par الاطياف
fila 95 grant hill par Andy Robert
1 61 22-11-2019 20:17:32 par fataxef
1 58 21-11-2019 06:28:19 par themailitems
0 39 26-10-2019 23:00:46 par Hazel12
1 245 25-10-2019 10:36:35 par alktub
0 38 17-10-2019 04:36:28 par Davidew
Nike Air Max 1 Pas Cher par woogn@nerdmail.co
0 44 17-10-2019 03:36:13 par woogn@nerdmail.co
Nike Air Max 97 Lage Prijs par woogn@nerdmail.co
0 45 17-10-2019 03:27:34 par woogn@nerdmail.co
Adidas Yeezy Boost 350 Svendita par woogn@nerdmail.co
0 43 17-10-2019 03:19:55 par woogn@nerdmail.co
Nike Air Max 90 Bestellen par woogn@nerdmail.co
0 42 17-10-2019 03:16:58 par woogn@nerdmail.co
Kopen Nike Air Max 1 par woogn@nerdmail.co
0 40 17-10-2019 03:13:11 par woogn@nerdmail.co
0 55 16-10-2019 13:52:58 par grubsyeety
Ways To Improve Rlx Male par maulanadiesel
0 82 09-10-2019 08:34:35 par maulanadiesel
0 44 08-10-2019 09:23:07 par LaleWigger
1 133 27-09-2019 17:45:45 par ideal heros mod apk
0 52 26-09-2019 11:45:02 par twmabrigu
2 134 25-09-2019 18:06:43 par ganjyabi
0 57 24-09-2019 15:31:26 par femmeyance
0 68 21-09-2019 09:44:32 par newbeatsy
0 57 19-09-2019 08:57:45 par dizibbmura
0 65 18-09-2019 09:11:22 par ShirleyCMaso125
0 51 16-09-2019 08:11:20 par سوپرفلزیاب
شركة رواد الحرمين par شركة رواد الحرمين
0 52 16-09-2019 00:49:08 par شركة رواد الحرمين
1 101 31-08-2019 20:05:09 par JasmineMiller
web development par kashturi
0 71 28-08-2019 12:10:38 par kashturi
0 63 20-08-2019 10:47:03 par wanaomar
]converse shoes for girls[/ par Vita Mat(h)ilda
0 61 19-08-2019 03:28:37 par Vita Mat(h)ilda
https://ketopromos.com/ par lindaglass
0 57 17-08-2019 12:30:18 par lindaglass
شركة رواد الحرمين par الحرمين
0 65 16-08-2019 03:41:31 par الحرمين
0 64 27-07-2019 10:51:54 par deckardshaw
https://ketopromos.com/ par rabiabatool
0 73 22-07-2019 10:44:36 par rabiabatool
0 71 01-07-2019 16:00:11 par EmmaLatin
1 100 29-06-2019 11:53:57 par saber20
0 69 29-06-2019 11:48:41 par saber20
0 72 26-06-2019 01:02:33 par EYADELASMR
adidas iniki runner mens par bnvioqjdfr
0 113 18-01-2019 06:44:37 par bnvioqjdfr
nike air max 90 womens par turner87
0 120 25-12-2018 12:41:17 par turner87
best cartier replica par benedict01
2 635 19-11-2018 03:31:56 par chenchao
white high top converse par Levi Anne
0 141 15-09-2018 09:52:45 par Levi Anne
white high top converse par Levi Anne
0 135 15-09-2018 09:51:47 par Levi Anne
3 912 27-06-2018 04:43:43 par abc12345699
Converse Shoes Liquidación par adolescent
0 194 12-05-2018 11:13:12 par adolescent
0 199 29-01-2018 04:53:19 par justi231
0 208 15-11-2017 06:35:09 par mozarito
0 171 09-10-2017 11:16:33 par waled
0 214 26-09-2017 05:40:11 par eddAsa4
0 197 26-09-2017 05:38:43 par eddAsa4
0 189 12-09-2017 11:09:48 par dssHobart2
0 181 12-09-2017 11:06:00 par dssHobart2
0 234 20-05-2017 10:14:25 par aeeUlysses5
0 220 20-05-2017 10:13:04 par aeeUlysses5
0 179 21-04-2017 05:10:51 par 1justdoit
0 218 09-04-2017 09:36:14 par manguo9
car or truck wash Tool par zhangwl
0 250 06-03-2017 07:57:07 par zhangwl
Authentic-Will-Keane-Jersey par vikingsstore
0 199 25-02-2017 06:02:31 par vikingsstore
0 216 13-01-2017 08:56:53 par candacegold
0 206 08-01-2017 07:12:47 par qiren8
0 274 09-10-2016 10:24:52 par candacegold
nike air max thea par yuyuhggk
0 265 08-09-2016 07:34:01 par yuyuhggk
0 176 15-07-2016 12:30:24 par yuanxiu14
0 222 15-07-2016 11:59:40 par yuanxiu14
1 219 14-07-2016 08:27:35 par Jike
0 225 10-06-2016 21:54:05 par afnan36 ali
0 175 10-06-2016 02:24:08 par afnan36 ali
0 216 10-06-2016 02:22:50 par afnan36 ali
0 219 21-04-2016 16:54:46 par afnan36
0 194 21-04-2016 16:51:48 par afnan36
0 214 21-04-2016 16:03:17 par afnan36
0 220 18-04-2016 03:32:46 par afnan ali
0 226 13-04-2016 09:45:27 par candacegold
EA won't care about people par candacegold
0 197 22-03-2016 07:39:52 par candacegold
0 418 13-03-2016 18:04:52 par afnan ali
0 246 12-03-2016 23:52:42 par afnan ali
0 249 30-01-2016 07:53:21 par JIANG
0 178 27-01-2016 03:53:08 par COCOJIANG
0 187 27-01-2016 03:37:38 par COCOJIANG
0 218 07-01-2016 09:25:44 par candacegold
0 236 26-12-2015 04:42:07 par Donassk
0 205 02-12-2015 07:51:55 par Hayestt
0 198 25-11-2015 04:06:52 par RiooGoe
0 186 25-11-2015 04:05:34 par RiooGoe
0 210 22-11-2015 09:28:29 par sunshine
0 228 21-11-2015 08:36:52 par Howardt
0 211 15-11-2015 07:45:31 par sunshine
0 196 03-11-2015 07:29:21 par engeles22
0 224 28-10-2015 06:23:46 par Jesuer
0 198 20-10-2015 03:58:30 par Canwurens
nike blazer mens low par Canwurens
0 254 20-10-2015 03:50:13 par Canwurens
0 233 18-08-2015 04:59:26 par Hepinsohu
nike free 5.0 herren par Yuxiuzely
0 216 10-08-2015 02:39:44 par Yuxiuzely
0 217 18-07-2015 04:29:58 par Kiyounmid
0 214 13-06-2015 05:23:34 par pstaorcy
nike roshe run hombre par Trificks
0 222 11-06-2015 03:12:53 par Trificks
0 214 10-06-2015 11:48:09 par zhangwl
0 232 03-06-2015 07:02:14 par Diepaiodiw
0 529 22-05-2015 03:39:44 par miao1234
0 556 22-05-2015 03:37:40 par miao1234
0 901 22-05-2015 03:34:10 par miao1234
0 552 22-05-2015 03:32:03 par miao1234
0 575 22-05-2015 03:29:41 par miao1234
0 569 22-05-2015 03:26:26 par miao1234

Pied de page des forums

Créez Votre Propre Forum
Insérer vos Graphiques
Dictionnaires de Traduction
Hébergé par ForumCrea.com